createdAt,value
2022-08-01T00:01:44.378Z,100022.35
2022-08-01T00:04:12.270Z,100018.19
2022-08-01T00:06:40.281Z,100020.14
2022-08-01T00:09:08.258Z,100016.76
2022-08-01T00:11:36.206Z,100018.77
2022-08-01T00:14:04.336Z,100013.75
2022-08-01T00:16:32.636Z,100007.64
2022-08-01T00:19:00.507Z,100008.85
2022-08-01T00:21:28.521Z,100002.02
2022-08-01T00:23:56.428Z,99998.48
2022-08-01T00:26:24.365Z,99995.39
2022-08-01T00:28:52.381Z,99990.40
2022-08-01T00:31:21.354Z,99987.83
2022-08-01T00:33:49.510Z,99989.71
2022-08-01T00:36:17.398Z,99991.52
2022-08-01T00:38:45.336Z,99991.55
2022-08-01T00:41:13.405Z,99993.42
2022-08-01T00:43:41.680Z,99990.36
2022-08-01T00:46:09.612Z,99988.63
2022-08-01T00:48:37.549Z,99988.16
2022-08-01T00:51:06.330Z,99985.88
2022-08-01T00:53:51.129Z,99985.84
2022-08-01T00:56:22.285Z,99983.26
2022-08-01T00:58:50.497Z,99989.20
2022-08-01T01:01:21.809Z,99991.81
2022-08-01T01:03:59.775Z,99994.13
2022-08-01T01:06:40.945Z,99996.61
2022-08-01T01:09:22.224Z,99998.59
2022-08-01T01:11:54.858Z,99998.85
2022-08-01T01:14:34.773Z,99997.86
2022-08-01T01:17:05.892Z,100002.83
2022-08-01T01:19:36.997Z,99997.73
2022-08-01T01:22:15.388Z,99994.14
2022-08-01T01:25:06.802Z,99992.44
2022-08-01T01:27:51.540Z,99995.13
2022-08-01T01:30:19.828Z,99997.39
2022-08-01T01:32:51.154Z,99999.65
2022-08-01T01:35:24.162Z,99996.61
2022-08-01T01:37:57.628Z,99994.90
2022-08-01T01:40:27.429Z,99994.85
2022-08-01T01:42:58.150Z,99998.39
2022-08-01T01:45:27.271Z,99995.62
2022-08-01T01:47:57.484Z,99997.70
2022-08-01T01:50:26.732Z,100000.54
2022-08-01T01:52:56.527Z,99999.42
2022-08-01T01:55:27.887Z,100000.26
2022-08-01T01:57:57.996Z,99996.02
2022-08-01T02:00:27.038Z,99998.06
2022-08-01T02:02:57.742Z,99994.86
2022-08-01T02:05:27.406Z,99997.20
2022-08-01T02:07:59.374Z,99993.98
2022-08-01T02:10:29.533Z,99994.05
2022-08-01T02:13:00.859Z,99991.27
2022-08-01T02:15:30.651Z,99990.51
2022-08-01T02:17:59.543Z,99990.45
2022-08-01T02:20:30.352Z,99984.60
2022-08-01T02:23:06.878Z,99983.64
2022-08-01T02:25:37.252Z,99984.79
2022-08-01T02:28:10.555Z,99986.23
2022-08-01T02:30:44.213Z,99986.45
2022-08-01T02:33:17.791Z,99990.37
2022-08-01T02:36:29.664Z,99990.13
2022-08-01T02:38:43.603Z,99990.00
2022-08-01T02:41:18.337Z,99992.45
2022-08-01T02:43:53.324Z,99998.12
2022-08-01T02:46:27.006Z,99994.49
2022-08-01T02:48:59.146Z,99992.35
2022-08-01T02:51:27.909Z,99994.40
2022-08-01T02:53:58.308Z,99995.00
2022-08-01T02:56:35.940Z,99998.27
2022-08-01T02:59:10.604Z,99997.13
2022-08-01T03:01:44.547Z,99994.73
2022-08-01T03:04:13.572Z,100000.95
2022-08-01T03:06:42.689Z,100004.11
2022-08-01T03:09:16.580Z,100007.07
2022-08-01T03:11:47.192Z,100007.09
2022-08-01T03:14:17.108Z,100010.27
2022-08-01T03:16:47.008Z,100008.30
2022-08-01T03:19:16.833Z,100009.70
2022-08-01T03:21:45.548Z,100010.05
2022-08-01T03:24:15.111Z,100009.36
2022-08-01T03:26:44.861Z,100010.30
2022-08-01T03:29:20.980Z,100014.90
2022-08-01T03:31:50.157Z,100012.18
2022-08-01T03:34:18.566Z,100014.15
2022-08-01T03:36:57.004Z,100018.55
2022-08-01T03:39:31.601Z,100020.05
2022-08-01T03:42:07.236Z,100021.54
2022-08-01T03:44:40.244Z,100024.34
2022-08-01T03:47:10.382Z,100026.38
2022-08-01T03:49:45.377Z,100029.02
2022-08-01T03:52:15.078Z,100030.52
2022-08-01T03:54:48.726Z,100036.94
2022-08-01T03:57:35.501Z,100038.34
2022-08-01T04:00:10.511Z,100034.92
2022-08-01T04:02:42.876Z,100038.16
2022-08-01T04:05:11.419Z,100040.95
2022-08-01T04:07:44.143Z,100043.63
2022-08-01T04:10:12.457Z,100043.85
2022-08-01T04:12:40.528Z,100043.70
2022-08-01T04:15:09.254Z,100046.20
2022-08-01T04:17:37.207Z,100046.52
2022-08-01T04:20:05.556Z,100046.25
2022-08-01T04:22:37.192Z,100045.59
2022-08-01T04:25:20.598Z,100043.63
2022-08-01T04:27:52.467Z,100046.65
2022-08-01T04:30:28.261Z,100049.27
2022-08-01T04:33:00.458Z,100046.77
2022-08-01T04:36:03.519Z,100049.11
2022-08-01T04:38:24.311Z,100053.41
2022-08-01T04:40:53.737Z,100055.27
2022-08-01T04:43:22.578Z,100055.35
2022-08-01T04:45:52.057Z,100057.21
2022-08-01T04:48:22.635Z,100059.16
2022-08-01T04:50:52.585Z,100062.95
2022-08-01T04:53:23.229Z,100063.41
2022-08-01T04:55:51.201Z,100059.95
2022-08-01T04:58:19.525Z,100062.67
2022-08-01T05:00:48.165Z,100063.70
2022-08-01T05:03:16.362Z,100064.67
2022-08-01T05:05:44.450Z,100068.02
2022-08-01T05:08:12.343Z,100068.37
2022-08-01T05:10:40.324Z,100072.81
2022-08-01T05:13:08.209Z,100074.65
2022-08-01T05:15:39.856Z,100075.92
2022-08-01T05:18:08.720Z,100076.95
2022-08-01T05:20:38.268Z,100076.29
2022-08-01T05:23:06.567Z,100075.74
2022-08-01T05:25:56.667Z,100075.49
2022-08-01T05:28:26.134Z,100078.79
2022-08-01T05:30:56.152Z,100079.08
2022-08-01T05:33:24.333Z,100080.31
2022-08-01T05:35:52.346Z,100085.88
2022-08-01T05:38:20.610Z,100085.19
2022-08-01T05:40:48.509Z,100086.33
2022-08-01T05:43:16.354Z,100087.42
2022-08-01T05:45:45.636Z,100088.80
2022-08-01T05:48:13.559Z,100090.92
2022-08-01T05:50:41.437Z,100091.77
2022-08-01T05:53:09.308Z,100092.86
2022-08-01T05:55:37.273Z,100093.55
2022-08-01T05:58:05.180Z,100089.44
2022-08-01T06:00:33.220Z,100093.38
2022-08-01T06:03:01.177Z,100093.00
2022-08-01T06:05:29.550Z,100090.58
2022-08-01T06:07:57.641Z,100095.56
2022-08-01T06:10:25.561Z,100096.47
2022-08-01T06:12:53.393Z,100094.52
2022-08-01T06:15:21.335Z,100090.98
2022-08-01T06:17:49.275Z,100089.10
2022-08-01T06:20:17.192Z,100091.61
2022-08-01T06:22:45.120Z,100093.56
2022-08-01T06:25:21.280Z,100091.89
2022-08-01T06:27:50.895Z,100093.23
2022-08-01T06:30:19.578Z,100096.85
2022-08-01T06:32:48.591Z,100098.41
2022-08-01T06:35:17.089Z,100101.34
2022-08-01T06:37:48.554Z,100106.08
2022-08-01T06:40:17.460Z,100108.14
2022-08-01T06:42:46.949Z,100110.36
2022-08-01T06:45:15.910Z,100105.42
2022-08-01T06:47:50.446Z,100109.27
2022-08-01T06:50:19.417Z,100107.35
2022-08-01T06:52:47.391Z,100108.70
2022-08-01T06:55:15.633Z,100112.13
2022-08-01T06:57:51.880Z,100115.73
2022-08-01T07:00:23.622Z,100107.10
2022-08-01T07:02:55.341Z,100106.96
2022-08-01T07:05:24.663Z,100108.70
2022-08-01T07:07:52.698Z,100107.55
2022-08-01T07:10:21.064Z,100105.84
2022-08-01T07:12:48.950Z,100105.38
2022-08-01T07:15:16.892Z,100104.05
2022-08-01T07:17:44.859Z,100106.99
2022-08-01T07:20:16.607Z,100106.32
2022-08-01T07:22:47.541Z,100103.30
2022-08-01T07:25:16.605Z,100103.39
2022-08-01T07:27:46.793Z,100100.42
2022-08-01T07:30:14.743Z,100092.26
2022-08-01T07:32:42.814Z,100094.02
2022-08-01T07:35:10.894Z,100088.25
2022-08-01T07:37:47.728Z,100090.96
2022-08-01T07:40:18.761Z,100093.86
2022-08-01T07:42:48.087Z,100091.76
2022-08-01T07:45:16.486Z,100093.32
2022-08-01T07:47:44.957Z,100096.05
2022-08-01T07:50:13.897Z,100093.31
2022-08-01T07:52:44.353Z,100088.73
2022-08-01T07:55:16.654Z,100085.58
2022-08-01T07:57:45.200Z,100091.02
2022-08-01T08:00:14.481Z,100086.27
2022-08-01T08:02:42.914Z,100084.88
2022-08-01T08:05:10.875Z,100084.56
2022-08-01T08:07:40.278Z,100086.23
2022-08-01T08:10:08.880Z,100089.68
2022-08-01T08:12:36.799Z,100091.30
2022-08-01T08:15:07.002Z,100094.70
2022-08-01T08:17:35.689Z,100097.55
2022-08-01T08:20:09.687Z,100094.73
2022-08-01T08:22:38.246Z,100096.02
2022-08-01T08:25:08.190Z,100100.53
2022-08-01T08:27:37.920Z,100100.21
2022-08-01T08:30:12.301Z,100097.98
2022-08-01T08:32:40.887Z,100099.77
2022-08-01T08:35:11.869Z,100103.49
2022-08-01T08:37:47.376Z,100102.58
2022-08-01T08:40:17.145Z,100106.86
2022-08-01T08:42:47.509Z,100110.36
2022-08-01T08:45:15.583Z,100110.55
2022-08-01T08:47:48.215Z,100111.88
2022-08-01T08:50:16.975Z,100111.00
2022-08-01T08:52:47.359Z,100114.34
2022-08-01T08:55:17.327Z,100117.89
2022-08-01T08:57:48.690Z,100118.00
2022-08-01T09:00:17.418Z,100116.41
2022-08-01T09:02:47.867Z,100117.91
2022-08-01T09:05:19.693Z,100120.66
2022-08-01T09:07:48.139Z,100127.34
2022-08-01T09:10:16.429Z,100127.91
2022-08-01T09:13:14.066Z,100129.09
2022-08-01T09:15:43.449Z,100126.26
2022-08-01T09:18:42.058Z,100129.54
2022-08-01T09:21:18.738Z,100130.27
2022-08-01T09:23:54.468Z,100135.52
2022-08-01T09:26:31.689Z,100137.77
2022-08-01T09:29:00.638Z,100138.90
2022-08-01T09:31:37.990Z,100134.61
2022-08-01T09:34:06.795Z,100137.70
2022-08-01T09:36:57.103Z,100137.02
2022-08-01T09:39:30.193Z,100135.44
2022-08-01T09:42:00.840Z,100127.23
2022-08-01T09:44:45.635Z,100128.08
2022-08-01T09:47:23.935Z,100135.08
2022-08-01T09:49:57.238Z,100129.38
2022-08-01T09:52:29.270Z,100130.45
2022-08-01T09:55:04.761Z,100127.92
2022-08-01T09:57:34.183Z,100131.20
2022-08-01T10:00:03.869Z,100127.76
2022-08-01T10:02:41.776Z,100125.73
2022-08-01T10:05:20.718Z,100129.45
2022-08-01T10:08:03.133Z,100130.76
2022-08-01T10:10:37.520Z,100126.38
2022-08-01T10:13:06.256Z,100123.49
2022-08-01T10:15:38.181Z,100122.77
2022-08-01T10:18:16.817Z,100120.59
2022-08-01T10:20:56.742Z,100121.92
2022-08-01T10:23:40.730Z,100122.95
2022-08-01T10:26:13.264Z,100116.80
2022-08-01T10:28:45.271Z,100115.73
2022-08-01T10:31:14.726Z,100115.92
2022-08-01T10:33:51.287Z,100115.17
2022-08-01T10:36:22.564Z,100111.86
2022-08-01T10:38:51.413Z,100112.70
2022-08-01T10:41:20.327Z,100115.78
2022-08-01T10:43:48.260Z,100116.99
2022-08-01T10:46:19.289Z,100113.69
2022-08-01T10:49:04.515Z,100115.52
2022-08-01T10:51:51.558Z,100115.40
2022-08-01T10:54:28.020Z,100116.77
2022-08-01T10:57:01.826Z,100114.78
2022-08-01T10:59:49.756Z,100113.50
2022-08-01T11:02:32.705Z,100112.55
2022-08-01T11:05:29.346Z,100109.95
2022-08-01T11:08:04.951Z,100107.20
2022-08-01T11:10:32.761Z,100105.58
2022-08-01T11:13:04.487Z,100105.06
2022-08-01T11:15:32.502Z,100103.91
2022-08-01T11:18:02.630Z,100105.05
2022-08-01T11:20:42.079Z,100109.91
2022-08-01T11:23:13.713Z,100107.48
2022-08-01T11:26:04.972Z,100104.96
2022-08-01T11:28:36.815Z,100100.48
2022-08-01T11:31:14.429Z,100105.32
2022-08-01T11:33:42.447Z,100106.27
2022-08-01T11:36:15.410Z,100108.33
2022-08-01T11:38:44.745Z,100109.11
2022-08-01T11:41:38.711Z,100109.71
2022-08-01T11:44:14.507Z,100111.06
2022-08-01T11:46:53.206Z,100114.52
2022-08-01T11:49:29.346Z,100111.04
2022-08-01T11:52:08.565Z,100110.19
2022-08-01T11:54:49.212Z,100107.79
2022-08-01T11:57:23.553Z,100109.27
2022-08-01T12:00:02.747Z,100112.02
2022-08-01T12:02:40.368Z,100112.88
2022-08-01T12:05:11.936Z,100114.29
2022-08-01T12:07:44.333Z,100107.14
2022-08-01T12:10:13.702Z,100108.11
2022-08-01T12:12:51.794Z,100102.91
2022-08-01T12:15:23.212Z,100103.27
2022-08-01T12:17:59.920Z,100100.50
2022-08-01T12:20:34.059Z,100101.70
2022-08-01T12:23:07.275Z,100104.16
2022-08-01T12:25:36.549Z,100104.31
2022-08-01T12:28:07.206Z,100100.30
2022-08-01T12:30:36.778Z,100099.01
2022-08-01T12:33:06.679Z,100100.04
2022-08-01T12:35:37.580Z,100103.06
2022-08-01T12:38:17.491Z,100100.60
2022-08-01T12:40:52.369Z,100101.42
2022-08-01T12:43:28.661Z,100098.45
2022-08-01T12:46:00.559Z,100095.16
2022-08-01T12:48:32.313Z,100097.21
2022-08-01T12:51:02.419Z,100096.95
2022-08-01T12:53:40.203Z,100096.73
2022-08-01T12:56:11.854Z,100093.17
2022-08-01T12:58:40.381Z,100093.35
2022-08-01T13:01:13.293Z,100093.16
2022-08-01T13:03:41.815Z,100090.52
2022-08-01T13:06:16.472Z,100090.45
2022-08-01T13:08:46.185Z,100087.10
2022-08-01T13:11:16.839Z,100088.77
2022-08-01T13:13:50.343Z,100087.01
2022-08-01T13:16:27.804Z,100082.45
2022-08-01T13:19:03.162Z,100086.20
2022-08-01T13:21:52.337Z,100080.04
2022-08-01T13:24:29.205Z,100082.62
2022-08-01T13:27:04.777Z,100080.23
2022-08-01T13:29:46.449Z,100084.45
2022-08-01T13:32:28.036Z,100078.02
2022-08-01T13:35:11.091Z,100076.58
2022-08-01T13:37:41.332Z,100076.46
2022-08-01T13:40:11.188Z,100082.30
2022-08-01T13:42:39.128Z,100077.91
2022-08-01T13:45:14.197Z,100078.91
2022-08-01T13:48:04.120Z,100084.51
2022-08-01T13:50:32.915Z,100087.00
2022-08-01T13:53:01.207Z,100089.86
2022-08-01T13:55:34.709Z,100081.24
2022-08-01T13:58:04.058Z,100081.45
2022-08-01T14:00:32.121Z,100083.82
2022-08-01T14:03:00.016Z,100084.63
2022-08-01T14:05:27.937Z,100087.09
2022-08-01T14:07:56.447Z,100087.95
2022-08-01T14:10:25.276Z,100087.92
2022-08-01T14:12:53.148Z,100092.14
2022-08-01T14:15:38.094Z,100091.15
2022-08-01T14:18:10.020Z,100093.67
2022-08-01T14:20:40.309Z,100095.70
2022-08-01T14:23:09.364Z,100095.60
2022-08-01T14:26:03.094Z,100100.44
2022-08-01T14:28:29.224Z,100099.94
2022-08-01T14:30:58.667Z,100101.36
2022-08-01T14:33:27.769Z,100105.16
2022-08-01T14:36:05.717Z,100108.14
2022-08-01T14:38:46.576Z,100108.80
2022-08-01T14:41:15.785Z,100108.34
2022-08-01T14:43:43.766Z,100108.55
2022-08-01T14:46:13.615Z,100110.27
2022-08-01T14:48:42.142Z,100107.36
2022-08-01T14:51:10.498Z,100109.64
2022-08-01T14:53:38.848Z,100106.46
2022-08-01T14:56:08.192Z,100110.45
2022-08-01T14:58:36.332Z,100109.46
2022-08-01T15:01:06.059Z,100113.33
2022-08-01T15:03:34.229Z,100114.30
2022-08-01T15:06:02.542Z,100113.48
2022-08-01T15:08:31.218Z,100108.37
2022-08-01T15:10:59.333Z,100115.73
2022-08-01T15:13:28.605Z,100113.97
2022-08-01T15:16:00.110Z,100115.42
2022-08-01T15:18:29.223Z,100115.13
2022-08-01T15:20:58.474Z,100115.00
2022-08-01T15:23:26.416Z,100115.38
2022-08-01T15:25:54.375Z,100120.27
2022-08-01T15:28:22.387Z,100117.79
2022-08-01T15:30:50.364Z,100124.11
2022-08-01T15:33:18.413Z,100122.86
2022-08-01T15:35:46.686Z,100123.86
2022-08-01T15:38:14.525Z,100121.77
2022-08-01T15:40:42.408Z,100118.54
2022-08-01T15:43:10.282Z,100117.50
2022-08-01T15:45:48.184Z,100115.85
2022-08-01T15:48:17.771Z,100114.08
2022-08-01T15:50:46.060Z,100115.09
2022-08-01T15:53:14.016Z,100113.46
2022-08-01T15:55:41.999Z,100113.93
2022-08-01T15:58:16.984Z,100114.23
2022-08-01T16:00:44.852Z,100116.20
2022-08-01T16:03:12.774Z,100117.55
2022-08-01T16:05:43.961Z,100116.16
2022-08-01T16:08:13.043Z,100121.72
2022-08-01T16:10:41.021Z,100120.70
2022-08-01T16:13:09.657Z,100122.75
2022-08-01T16:15:39.460Z,100122.05
2022-08-01T16:18:09.394Z,100128.23
2022-08-01T16:20:43.002Z,100129.70
2022-08-01T16:23:15.124Z,100132.58
2022-08-01T16:25:45.036Z,100130.98
2022-08-01T16:28:14.614Z,100136.27
2022-08-01T16:30:54.219Z,100135.46
2022-08-01T16:33:47.080Z,100133.25
2022-08-01T16:36:21.012Z,100141.27
2022-08-01T16:38:49.046Z,100139.98
2022-08-01T16:41:19.509Z,100141.36
2022-08-01T16:43:53.269Z,100137.84
2022-08-01T16:46:25.469Z,100138.39
2022-08-01T16:48:54.343Z,100138.80
2022-08-01T16:51:22.940Z,100135.98
2022-08-01T16:53:51.111Z,100135.45
2022-08-01T16:56:20.301Z,100136.24
2022-08-01T16:58:49.517Z,100134.00
2022-08-01T17:02:00.561Z,100134.88
2022-08-01T17:04:08.831Z,100136.56
2022-08-01T17:06:36.869Z,100136.37
2022-08-01T17:09:05.593Z,100139.60
2022-08-01T17:11:34.353Z,100139.41
2022-08-01T17:14:02.430Z,100141.52
2022-08-01T17:16:30.513Z,100142.86
2022-08-01T17:18:58.681Z,100141.49
2022-08-01T17:21:26.754Z,100140.90
2022-08-01T17:23:54.626Z,100141.19
2022-08-01T17:26:22.703Z,100144.84
2022-08-01T17:28:50.780Z,100147.05
2022-08-01T17:31:18.862Z,100148.19
2022-08-01T17:33:49.524Z,100145.84
2022-08-01T17:36:21.378Z,100146.05
2022-08-01T17:38:49.567Z,100147.89
2022-08-01T17:41:17.610Z,100150.00
2022-08-01T17:43:45.556Z,100154.71
2022-08-01T17:46:13.887Z,100158.30
2022-08-01T17:48:41.800Z,100161.92
2022-08-01T17:51:09.706Z,100163.98
2022-08-01T17:53:37.585Z,100166.42
2022-08-01T17:56:24.615Z,100162.35
2022-08-01T17:58:52.772Z,100162.72
2022-08-01T18:01:21.457Z,100159.92
2022-08-01T18:03:49.463Z,100162.69
2022-08-01T18:06:19.872Z,100157.38
2022-08-01T18:08:55.447Z,100160.35
2022-08-01T18:11:27.197Z,100165.47
2022-08-01T18:13:59.768Z,100166.31
2022-08-01T18:16:28.458Z,100164.46
2022-08-01T18:18:56.419Z,100166.27
2022-08-01T18:21:24.395Z,100166.90
2022-08-01T18:23:52.575Z,100171.46
2022-08-01T18:26:21.888Z,100169.89
2022-08-01T18:28:49.858Z,100172.12
2022-08-01T18:31:19.925Z,100175.84
2022-08-01T18:33:48.297Z,100178.95
2022-08-01T18:36:32.427Z,100180.86
2022-08-01T18:39:05.476Z,100180.59
2022-08-01T18:41:36.200Z,100186.70
2022-08-01T18:44:08.064Z,100187.23
2022-08-01T18:46:38.478Z,100189.81
2022-08-01T18:49:08.942Z,100192.60
2022-08-01T18:51:43.502Z,100195.89
2022-08-01T18:54:14.881Z,100199.91
2022-08-01T18:56:44.442Z,100197.11
2022-08-01T18:59:12.802Z,100201.48
2022-08-01T19:01:41.250Z,100200.60
2022-08-01T19:04:10.066Z,100202.21
2022-08-01T19:06:38.935Z,100209.20
2022-08-01T19:09:08.477Z,100213.57
2022-08-01T19:11:37.163Z,100211.42
2022-08-01T19:14:05.082Z,100212.02
2022-08-01T19:16:33.096Z,100210.17
2022-08-01T19:19:04.754Z,100209.17
2022-08-01T19:21:33.323Z,100211.80
2022-08-01T19:24:23.236Z,100216.58
2022-08-01T19:26:54.713Z,100216.67
2022-08-01T19:29:36.902Z,100219.56
2022-08-01T19:32:06.978Z,100223.00
2022-08-01T19:34:42.407Z,100221.05
2022-08-01T19:37:11.752Z,100222.69
2022-08-01T19:39:44.634Z,100225.52
2022-08-01T19:42:13.570Z,100228.02
2022-08-01T19:44:43.040Z,100227.66
2022-08-01T19:47:14.076Z,100227.54
2022-08-01T19:49:42.043Z,100228.59
2022-08-01T19:52:10.985Z,100225.92
2022-08-01T19:54:42.916Z,100224.63
2022-08-01T19:57:14.787Z,100226.73
2022-08-01T19:59:46.622Z,100222.85
2022-08-01T20:02:21.592Z,100221.25
2022-08-01T20:04:49.717Z,100222.50
2022-08-01T20:07:18.099Z,100223.14
2022-08-01T20:09:48.543Z,100226.11
2022-08-01T20:12:21.603Z,100230.20
2022-08-01T20:14:53.993Z,100234.48
2022-08-01T20:17:23.654Z,100235.70
2022-08-01T20:19:51.760Z,100236.29
2022-08-01T20:22:26.376Z,100232.30
2022-08-01T20:24:58.593Z,100232.98
2022-08-01T20:27:29.164Z,100234.71
2022-08-01T20:30:00.375Z,100232.41
2022-08-01T20:32:33.783Z,100232.75
2022-08-01T20:35:03.484Z,100234.45
2022-08-01T20:38:03.787Z,100232.02
2022-08-01T20:40:25.123Z,100229.48
2022-08-01T20:42:55.858Z,100232.83
2022-08-01T20:45:28.864Z,100237.47
2022-08-01T20:47:58.257Z,100235.52
2022-08-01T20:50:53.131Z,100236.83
2022-08-01T20:53:26.198Z,100235.77
2022-08-01T20:56:33.749Z,100234.33
2022-08-01T20:59:55.379Z,100232.15
2022-08-01T21:02:51.551Z,100236.05
2022-08-01T21:05:27.314Z,100234.80
2022-08-01T21:08:12.760Z,100239.13
2022-08-01T21:10:41.830Z,100241.02
2022-08-01T21:13:24.365Z,100241.32
2022-08-01T21:16:07.491Z,100244.95
2022-08-01T21:19:19.518Z,100245.01
2022-08-01T21:21:51.018Z,100243.29
2022-08-01T21:24:23.936Z,100242.09
2022-08-01T21:26:53.615Z,100243.69
2022-08-01T21:29:24.356Z,100244.73
2022-08-01T21:32:11.828Z,100244.34
2022-08-01T21:34:40.221Z,100248.25
2022-08-01T21:37:09.669Z,100245.50
2022-08-01T21:39:38.666Z,100247.72
2022-08-01T21:42:09.429Z,100248.09
2022-08-01T21:44:44.750Z,100249.13
2022-08-01T21:47:14.024Z,100248.80
2022-08-01T21:49:42.634Z,100247.21
2022-08-01T21:52:22.737Z,100247.40
2022-08-01T21:54:59.827Z,100247.55
2022-08-01T21:57:46.930Z,100246.21
2022-08-01T22:01:11.337Z,100245.35
2022-08-01T22:04:02.700Z,100247.23
2022-08-01T22:06:34.773Z,100247.55
2022-08-01T22:09:08.483Z,100252.36
2022-08-01T22:11:38.489Z,100250.16
2022-08-01T22:14:28.292Z,100250.36
2022-08-01T22:16:58.121Z,100255.53
2022-08-01T22:19:41.301Z,100252.17
2022-08-01T22:22:44.884Z,100255.25
2022-08-01T22:25:02.440Z,100259.23
2022-08-01T22:28:05.573Z,100256.84
2022-08-01T22:30:20.271Z,100263.11
2022-08-01T22:33:15.219Z,100261.83
2022-08-01T22:35:36.660Z,100264.95
2022-08-01T22:38:09.833Z,100264.84
2022-08-01T22:40:44.058Z,100262.86
2022-08-01T22:43:24.246Z,100265.02
2022-08-01T22:45:56.605Z,100269.48
2022-08-01T22:49:00.771Z,100269.98
2022-08-01T22:51:54.968Z,100266.53
2022-08-01T22:54:36.761Z,100266.58
2022-08-01T22:57:11.391Z,100265.38
2022-08-01T22:59:49.583Z,100265.26
2022-08-01T23:02:19.899Z,100268.52
2022-08-01T23:04:49.769Z,100270.00
2022-08-01T23:07:28.490Z,100275.23
2022-08-01T23:09:58.322Z,100276.48
2022-08-01T23:12:27.712Z,100276.08
2022-08-01T23:14:57.868Z,100273.66
2022-08-01T23:17:29.084Z,100272.48
2022-08-01T23:20:00.433Z,100272.95
2022-08-01T23:22:31.680Z,100270.70
2022-08-01T23:25:04.661Z,100273.45
2022-08-01T23:28:03.304Z,100271.20
2022-08-01T23:30:30.754Z,100270.88
2022-08-01T23:32:59.331Z,100273.41
2022-08-01T23:35:28.854Z,100274.13
2022-08-01T23:38:02.004Z,100275.08
2022-08-01T23:40:32.563Z,100276.41
2022-08-01T23:43:01.936Z,100275.18
2022-08-01T23:46:02.623Z,100274.90
2022-08-01T23:48:19.047Z,100281.11
2022-08-01T23:50:47.025Z,100281.14
2022-08-01T23:53:14.977Z,100283.52
2022-08-01T23:55:44.430Z,100283.55
2022-08-01T23:58:12.678Z,100282.08
